createdAt,value
2022-08-04T00:00:32.094Z,54.99
2022-08-04T00:03:16.351Z,54.48
2022-08-04T00:05:55.471Z,54.93
2022-08-04T00:08:35.349Z,54.89
2022-08-04T00:11:03.314Z,54.67
2022-08-04T00:13:32.858Z,54.53
2022-08-04T00:16:05.710Z,54.37
2022-08-04T00:18:36.421Z,54.40
2022-08-04T00:21:06.797Z,54.47
2022-08-04T00:24:10.511Z,54.37
2022-08-04T00:26:24.103Z,54.27
2022-08-04T00:28:54.182Z,54.86
2022-08-04T00:31:54.283Z,54.99
2022-08-04T00:34:13.039Z,52.76
2022-08-04T00:36:41.594Z,54.75
2022-08-04T00:39:13.005Z,54.76
2022-08-04T00:42:00.513Z,52.56
2022-08-04T00:44:35.133Z,51.88
2022-08-04T00:47:12.291Z,50.46
2022-08-04T00:50:02.398Z,52.79
2022-08-04T00:52:34.884Z,53.79
2022-08-04T00:55:11.950Z,53.02
2022-08-04T00:57:57.502Z,51.54
2022-08-04T01:00:25.178Z,49.87
2022-08-04T01:03:02.976Z,49.32
2022-08-04T01:05:37.608Z,48.37
2022-08-04T01:08:34.763Z,48.21
2022-08-04T01:11:06.279Z,48.10
2022-08-04T01:13:50.054Z,48.07
2022-08-04T01:16:19.013Z,47.92
2022-08-04T01:18:52.417Z,48.01
2022-08-04T01:21:38.749Z,47.52
2022-08-04T01:24:16.803Z,47.79
2022-08-04T01:26:58.042Z,47.69
2022-08-04T01:29:29.804Z,47.88
2022-08-04T01:32:16.653Z,47.63
2022-08-04T01:34:49.029Z,47.83
2022-08-04T01:37:24.280Z,47.64
2022-08-04T01:40:00.185Z,47.79
2022-08-04T01:42:32.261Z,47.74
2022-08-04T01:45:02.437Z,47.14
2022-08-04T01:47:31.657Z,47.51
2022-08-04T01:50:05.789Z,48.13
2022-08-04T01:52:34.468Z,47.94
2022-08-04T01:55:02.482Z,47.88
2022-08-04T01:57:46.123Z,47.64
2022-08-04T02:00:17.381Z,47.76
2022-08-04T02:02:46.729Z,47.31
2022-08-04T02:05:16.918Z,47.43
2022-08-04T02:08:03.223Z,47.45
2022-08-04T02:10:45.677Z,47.65
2022-08-04T02:13:20.108Z,47.84
2022-08-04T02:15:55.038Z,47.54
2022-08-04T02:18:25.432Z,48.05
2022-08-04T02:20:59.003Z,48.49
2022-08-04T02:23:30.786Z,48.47
2022-08-04T02:26:03.608Z,48.64
2022-08-04T02:28:36.582Z,48.65
2022-08-04T02:31:20.484Z,49.04
2022-08-04T02:33:53.533Z,50.00
2022-08-04T02:36:25.113Z,51.99
2022-08-04T02:38:56.390Z,52.64
2022-08-04T02:41:26.870Z,52.45
2022-08-04T02:43:57.108Z,53.27
2022-08-04T02:46:26.291Z,53.84
2022-08-04T02:48:54.783Z,54.46
2022-08-04T02:51:25.630Z,54.46
2022-08-04T02:53:55.376Z,54.58
2022-08-04T02:56:24.609Z,54.10
2022-08-04T02:58:54.980Z,54.21
2022-08-04T03:01:24.121Z,54.10
2022-08-04T03:04:00.622Z,54.46
2022-08-04T03:06:51.535Z,54.92
2022-08-04T03:09:49.034Z,56.16
2022-08-04T03:12:40.695Z,55.95
2022-08-04T03:15:33.193Z,55.17
2022-08-04T03:18:22.052Z,52.89
2022-08-04T03:21:16.463Z,50.89
2022-08-04T03:24:03.416Z,51.25
2022-08-04T03:27:02.762Z,51.68
2022-08-04T03:30:04.545Z,52.40
2022-08-04T03:33:11.566Z,53.40
2022-08-04T03:36:15.315Z,54.72
2022-08-04T03:39:16.076Z,55.44
2022-08-04T03:42:14.229Z,54.60
2022-08-04T03:45:23.622Z,52.32
2022-08-04T03:48:15.311Z,52.10
2022-08-04T03:51:35.914Z,52.14
2022-08-04T03:54:21.747Z,51.99
2022-08-04T03:57:00.820Z,53.99
2022-08-04T03:59:48.765Z,55.08
2022-08-04T04:02:42.153Z,54.37
2022-08-04T04:05:33.595Z,54.96
2022-08-04T04:08:39.586Z,53.19
2022-08-04T04:11:27.259Z,55.69
2022-08-04T04:14:04.327Z,55.91
2022-08-04T04:16:46.593Z,56.40
2022-08-04T04:20:00.863Z,57.08
2022-08-04T04:22:52.348Z,57.17
2022-08-04T04:25:28.833Z,57.10
2022-08-04T04:28:44.487Z,55.28
2022-08-04T04:31:22.679Z,53.64
2022-08-04T04:33:59.880Z,54.51
2022-08-04T04:36:36.668Z,54.64
2022-08-04T04:39:12.524Z,56.16
2022-08-04T04:41:54.448Z,55.69
2022-08-04T04:44:57.557Z,54.15
2022-08-04T04:48:07.473Z,54.57
2022-08-04T04:50:33.688Z,53.03
2022-08-04T04:53:10.617Z,53.17
2022-08-04T04:55:46.404Z,53.77
2022-08-04T04:58:18.522Z,53.33
2022-08-04T05:01:09.447Z,53.12
2022-08-04T05:03:53.992Z,52.96
2022-08-04T05:06:33.676Z,52.58
2022-08-04T05:09:11.005Z,52.97
2022-08-04T05:11:57.705Z,53.06
2022-08-04T05:14:34.411Z,53.17
2022-08-04T05:17:14.863Z,53.21
2022-08-04T05:19:53.285Z,52.48
2022-08-04T05:22:24.385Z,52.07
2022-08-04T05:25:09.182Z,51.65
2022-08-04T05:27:40.354Z,51.82
2022-08-04T05:30:09.655Z,51.99
2022-08-04T05:32:42.254Z,51.83
2022-08-04T05:35:12.798Z,51.88
2022-08-04T05:37:42.329Z,51.66
2022-08-04T05:40:11.500Z,50.99
2022-08-04T05:42:41.153Z,51.25
2022-08-04T05:45:10.154Z,50.84
2022-08-04T05:47:39.521Z,50.68
2022-08-04T05:50:08.381Z,50.74
2022-08-04T05:52:36.509Z,50.69
2022-08-04T05:55:05.835Z,49.92
2022-08-04T05:57:34.475Z,50.00
2022-08-04T06:00:31.672Z,49.45
2022-08-04T06:02:57.397Z,49.77
2022-08-04T06:05:26.071Z,49.08
2022-08-04T06:08:04.470Z,49.19
2022-08-04T06:10:42.618Z,48.36
2022-08-04T06:13:48.785Z,49.16
2022-08-04T06:16:02.835Z,48.64
2022-08-04T06:20:00.175Z,48.16
2022-08-04T06:21:24.308Z,48.28
2022-08-04T06:23:56.156Z,47.90
2022-08-04T06:26:31.279Z,47.37
2022-08-04T06:29:01.667Z,47.38
2022-08-04T06:32:27.670Z,47.18
2022-08-04T06:34:36.810Z,46.61
2022-08-04T06:37:41.029Z,46.60
2022-08-04T06:40:04.136Z,46.70
2022-08-04T06:42:51.720Z,46.37
2022-08-04T06:45:21.268Z,46.48
2022-08-04T06:47:49.598Z,46.79
2022-08-04T06:51:24.796Z,45.85
2022-08-04T06:53:07.591Z,46.27
2022-08-04T06:55:35.505Z,46.22
2022-08-04T06:58:03.831Z,45.47
2022-08-04T07:00:32.347Z,45.08
2022-08-04T07:03:05.581Z,45.60
2022-08-04T07:05:36.818Z,45.43
2022-08-04T07:08:06.511Z,45.29
2022-08-04T07:10:34.908Z,45.12
2022-08-04T07:13:03.032Z,44.77
2022-08-04T07:15:31.171Z,44.63
2022-08-04T07:18:04.307Z,44.54
2022-08-04T07:20:36.755Z,44.36
2022-08-04T07:23:06.226Z,44.13
2022-08-04T07:25:59.759Z,44.64
2022-08-04T07:28:28.133Z,43.92
2022-08-04T07:30:56.783Z,43.80
2022-08-04T07:33:25.977Z,44.13
2022-08-04T07:36:05.327Z,43.31
2022-08-04T07:38:48.534Z,43.08
2022-08-04T07:41:40.474Z,42.62
2022-08-04T07:44:09.236Z,43.44
2022-08-04T07:46:37.229Z,43.16
2022-08-04T07:49:05.440Z,42.21
2022-08-04T07:51:36.268Z,42.08
2022-08-04T07:54:05.389Z,42.43
2022-08-04T07:56:33.622Z,42.17
2022-08-04T07:59:01.385Z,41.45
2022-08-04T08:01:28.990Z,40.62
2022-08-04T08:03:58.358Z,40.84
2022-08-04T08:06:33.027Z,41.35
2022-08-04T08:09:13.682Z,40.27
2022-08-04T08:12:37.865Z,40.50
2022-08-04T08:14:31.771Z,40.05
2022-08-04T08:17:01.421Z,39.59
2022-08-04T08:19:28.977Z,39.63
2022-08-04T08:21:59.371Z,40.03
2022-08-04T08:24:29.664Z,39.41
2022-08-04T08:26:57.756Z,39.10
2022-08-04T08:29:25.821Z,39.25
2022-08-04T08:31:55.424Z,39.27
2022-08-04T08:34:27.906Z,38.99
2022-08-04T08:37:01.789Z,38.29
2022-08-04T08:39:39.439Z,38.09
2022-08-04T08:42:44.847Z,38.24
2022-08-04T08:45:46.786Z,38.02
2022-08-04T08:48:45.730Z,37.72
2022-08-04T08:51:24.771Z,37.56
2022-08-04T08:54:08.823Z,37.73
2022-08-04T08:56:45.970Z,36.56
2022-08-04T08:59:37.338Z,36.75
2022-08-04T09:02:25.439Z,37.08
2022-08-04T09:05:03.926Z,36.18
2022-08-04T09:07:49.131Z,35.60
2022-08-04T09:10:20.652Z,36.88
2022-08-04T09:12:53.013Z,36.54
2022-08-04T09:15:25.942Z,36.06
2022-08-04T09:17:56.633Z,35.46
2022-08-04T09:20:31.470Z,35.65
2022-08-04T09:23:08.853Z,34.20
2022-08-04T09:25:41.655Z,35.48
2022-08-04T09:28:43.539Z,34.21
2022-08-04T09:31:12.438Z,33.89
2022-08-04T09:33:46.210Z,34.14
2022-08-04T09:36:26.009Z,34.78
2022-08-04T09:39:05.049Z,34.38
2022-08-04T09:41:49.320Z,33.38
2022-08-04T09:44:50.090Z,33.33
2022-08-04T09:47:21.509Z,33.53
2022-08-04T09:49:55.844Z,32.92
2022-08-04T09:52:29.489Z,32.57
2022-08-04T09:55:04.745Z,33.27
2022-08-04T09:57:43.035Z,33.28
2022-08-04T10:00:16.522Z,33.17
2022-08-04T10:02:48.563Z,32.88
2022-08-04T10:05:19.596Z,32.10
2022-08-04T10:07:59.595Z,33.25
2022-08-04T10:10:51.540Z,32.16
2022-08-04T10:13:24.772Z,31.96
2022-08-04T10:16:17.045Z,31.40
2022-08-04T10:18:50.844Z,31.31
2022-08-04T10:21:20.971Z,31.43
2022-08-04T10:24:00.094Z,31.87
2022-08-04T10:26:36.098Z,31.14
2022-08-04T10:29:06.864Z,30.86
2022-08-04T10:31:44.025Z,30.92
2022-08-04T10:34:16.747Z,30.94
2022-08-04T10:36:50.959Z,30.31
2022-08-04T10:39:43.502Z,29.63
2022-08-04T10:42:17.133Z,29.26
2022-08-04T10:44:57.820Z,29.77
2022-08-04T10:47:33.231Z,28.69
2022-08-04T10:50:02.885Z,29.25
2022-08-04T10:52:35.396Z,29.47
2022-08-04T10:55:07.177Z,29.19
2022-08-04T10:57:37.261Z,29.23
2022-08-04T11:00:07.174Z,28.71
2022-08-04T11:02:39.149Z,29.18
2022-08-04T11:05:13.891Z,28.91
2022-08-04T11:07:45.421Z,27.51
2022-08-04T11:10:13.977Z,27.90
2022-08-04T11:12:43.473Z,27.74
2022-08-04T11:15:13.440Z,26.51
2022-08-04T11:17:44.319Z,26.80
2022-08-04T11:20:34.549Z,26.21
2022-08-04T11:23:07.929Z,25.73
2022-08-04T11:25:51.131Z,24.91
2022-08-04T11:28:24.573Z,25.86
2022-08-04T11:30:54.906Z,23.22
2022-08-04T11:33:28.728Z,23.49
2022-08-04T11:35:59.572Z,24.67
2022-08-04T11:38:32.716Z,24.25
2022-08-04T11:41:05.636Z,24.48
2022-08-04T11:44:00.463Z,25.08
2022-08-04T11:46:28.609Z,23.84
2022-08-04T11:49:03.349Z,24.17
2022-08-04T11:51:32.471Z,23.17
2022-08-04T11:54:00.544Z,24.29
2022-08-04T11:56:37.025Z,24.53
2022-08-04T11:59:07.441Z,23.58
2022-08-04T12:01:39.867Z,25.09
2022-08-04T12:04:13.452Z,24.07
2022-08-04T12:06:56.866Z,23.27
2022-08-04T12:09:40.701Z,23.13
2022-08-04T12:12:14.711Z,22.96
2022-08-04T12:14:48.605Z,23.43
2022-08-04T12:17:23.521Z,23.27
2022-08-04T12:20:05.239Z,23.58
2022-08-04T12:22:47.981Z,23.93
2022-08-04T12:25:21.284Z,22.69
2022-08-04T12:27:53.459Z,22.29
2022-08-04T12:30:58.446Z,22.42
2022-08-04T12:33:17.803Z,22.76
2022-08-04T12:36:05.162Z,23.62
2022-08-04T12:38:45.171Z,22.96
2022-08-04T12:41:13.770Z,23.08
2022-08-04T12:43:43.301Z,23.57
2022-08-04T12:46:13.351Z,23.92
2022-08-04T12:48:46.338Z,23.36
2022-08-04T12:52:05.873Z,23.70
2022-08-04T12:54:03.493Z,23.20
2022-08-04T12:56:32.547Z,24.59
2022-08-04T12:59:03.132Z,23.74
2022-08-04T13:02:06.866Z,23.79
2022-08-04T13:04:21.641Z,23.96
2022-08-04T13:06:58.947Z,23.78
2022-08-04T13:09:31.045Z,24.60
2022-08-04T13:12:02.010Z,24.39
2022-08-04T13:14:32.950Z,23.52
2022-08-04T13:17:01.812Z,22.23
2022-08-04T13:19:30.699Z,22.59
2022-08-04T13:22:03.064Z,22.73
2022-08-04T13:24:34.202Z,22.46
2022-08-04T13:27:08.909Z,22.80
2022-08-04T13:30:00.006Z,21.13
2022-08-04T13:32:26.383Z,21.46
2022-08-04T13:34:55.509Z,21.74
2022-08-04T13:37:26.759Z,21.48
2022-08-04T13:39:56.384Z,20.28
2022-08-04T13:42:25.718Z,21.02
2022-08-04T13:44:56.223Z,20.68
2022-08-04T13:47:27.955Z,19.75
2022-08-04T13:50:23.738Z,20.05
2022-08-04T13:52:54.879Z,20.74
2022-08-04T13:55:25.243Z,20.29
2022-08-04T13:58:00.466Z,20.27
2022-08-04T14:00:40.433Z,21.80
2022-08-04T14:03:18.997Z,21.45
2022-08-04T14:06:14.358Z,21.13
2022-08-04T14:08:50.494Z,20.56
2022-08-04T14:12:06.280Z,19.99
2022-08-04T14:14:20.065Z,20.40
2022-08-04T14:16:59.235Z,19.93
2022-08-04T14:19:31.037Z,19.30
2022-08-04T14:22:03.831Z,19.27
2022-08-04T14:24:32.956Z,19.63
2022-08-04T14:27:01.242Z,19.43
2022-08-04T14:29:37.629Z,19.88
2022-08-04T14:32:22.911Z,19.86
2022-08-04T14:34:53.569Z,19.72
2022-08-04T14:37:22.847Z,20.21
2022-08-04T14:40:17.888Z,20.37
2022-08-04T14:42:43.616Z,19.58
2022-08-04T14:45:12.956Z,20.54
2022-08-04T14:47:52.270Z,20.15
2022-08-04T14:50:21.861Z,19.52
2022-08-04T14:52:49.514Z,20.21
2022-08-04T14:55:21.250Z,19.32
2022-08-04T14:58:34.040Z,19.30
2022-08-04T15:00:37.742Z,19.52
2022-08-04T15:03:08.995Z,19.29
2022-08-04T15:06:03.796Z,19.55
2022-08-04T15:08:29.052Z,19.01
2022-08-04T15:11:02.903Z,20.01
2022-08-04T15:13:31.214Z,20.38
2022-08-04T15:16:04.119Z,20.30
2022-08-04T15:18:36.170Z,19.90
2022-08-04T15:21:04.954Z,20.54
2022-08-04T15:23:38.669Z,19.66
2022-08-04T15:26:11.392Z,20.31
2022-08-04T15:28:41.483Z,19.55
2022-08-04T15:32:07.723Z,19.57
2022-08-04T15:33:58.509Z,19.56
2022-08-04T15:36:34.392Z,20.19
2022-08-04T15:39:09.633Z,20.66
2022-08-04T15:41:54.809Z,20.71
2022-08-04T15:44:48.165Z,21.23
2022-08-04T15:47:16.891Z,21.88
2022-08-04T15:49:44.875Z,21.03
2022-08-04T15:52:15.894Z,20.52
2022-08-04T15:54:52.312Z,20.23
2022-08-04T15:58:00.275Z,20.13
2022-08-04T16:00:28.499Z,19.11
2022-08-04T16:02:56.819Z,19.73
2022-08-04T16:05:41.649Z,20.13
2022-08-04T16:08:16.395Z,19.55
2022-08-04T16:10:51.021Z,21.09
2022-08-04T16:13:21.405Z,21.20
2022-08-04T16:15:56.729Z,21.45
2022-08-04T16:18:44.077Z,22.62
2022-08-04T16:21:20.993Z,21.54
2022-08-04T16:24:02.046Z,20.54
2022-08-04T16:26:54.360Z,21.61
2022-08-04T16:29:28.821Z,22.29
2022-08-04T16:32:25.035Z,23.01
2022-08-04T16:34:59.753Z,22.07
2022-08-04T16:37:34.839Z,23.23
2022-08-04T16:40:37.143Z,21.33
2022-08-04T16:43:07.726Z,20.08
2022-08-04T16:45:51.298Z,20.45
2022-08-04T16:48:20.246Z,22.37
2022-08-04T16:50:50.586Z,23.32
2022-08-04T16:53:53.506Z,23.98
2022-08-04T16:56:08.400Z,22.92
2022-08-04T16:58:37.243Z,22.77
2022-08-04T17:01:32.077Z,22.73
2022-08-04T17:04:05.285Z,22.41
2022-08-04T17:06:35.769Z,22.25
2022-08-04T17:09:06.170Z,21.53
2022-08-04T17:11:33.849Z,22.52
2022-08-04T17:14:05.319Z,22.96
2022-08-04T17:16:36.520Z,23.20
2022-08-04T17:19:24.406Z,22.37
2022-08-04T17:22:02.290Z,22.17
2022-08-04T17:24:30.733Z,21.66
2022-08-04T17:26:58.931Z,21.76
2022-08-04T17:29:42.770Z,21.02
2022-08-04T17:32:16.706Z,21.42
2022-08-04T17:34:48.778Z,21.12
2022-08-04T17:37:37.886Z,21.54
2022-08-04T17:43:03.343Z,21.53
2022-08-04T17:46:29.660Z,22.68
2022-08-04T17:49:00.935Z,22.48
2022-08-04T17:52:02.534Z,22.75
2022-08-04T17:54:37.128Z,25.62
2022-08-04T17:57:20.742Z,25.46
2022-08-04T17:59:56.065Z,22.46
2022-08-04T18:02:33.373Z,22.07
2022-08-04T18:05:06.381Z,22.77
2022-08-04T18:08:38.394Z,23.14
2022-08-04T18:10:44.732Z,23.56
2022-08-04T18:13:24.211Z,23.56
2022-08-04T18:15:51.978Z,24.23
2022-08-04T18:18:23.698Z,24.20
2022-08-04T18:20:53.333Z,24.28
2022-08-04T18:23:20.918Z,24.17
2022-08-04T18:26:02.009Z,24.70
2022-08-04T18:28:30.669Z,24.26
2022-08-04T18:30:58.886Z,24.86
2022-08-04T18:33:39.484Z,24.18
2022-08-04T18:36:33.076Z,25.01
2022-08-04T18:39:13.166Z,25.22
2022-08-04T18:42:00.941Z,25.39
2022-08-04T18:44:31.039Z,26.40
2022-08-04T18:47:19.760Z,27.87
2022-08-04T18:50:58.737Z,26.64
2022-08-04T18:52:35.820Z,26.36
2022-08-04T18:55:12.643Z,25.58
2022-08-04T18:58:01.558Z,25.40
2022-08-04T19:00:34.561Z,25.93
2022-08-04T19:03:02.260Z,28.15
2022-08-04T19:05:37.738Z,28.94
2022-08-04T19:08:11.593Z,28.83
2022-08-04T19:10:59.801Z,29.86
2022-08-04T19:13:27.996Z,29.92
2022-08-04T19:15:55.664Z,30.02
2022-08-04T19:18:26.195Z,30.72
2022-08-04T19:20:55.931Z,30.87
2022-08-04T19:24:28.871Z,30.35
2022-08-04T19:26:23.683Z,31.02
2022-08-04T19:28:56.038Z,32.55
2022-08-04T19:31:34.037Z,32.71
2022-08-04T19:34:05.167Z,32.97
2022-08-04T19:36:35.039Z,33.38
2022-08-04T19:39:11.549Z,33.79
2022-08-04T19:42:05.781Z,34.26
2022-08-04T19:44:30.178Z,34.54
2022-08-04T19:50:04.881Z,34.64
2022-08-04T19:52:34.186Z,35.08
2022-08-04T19:55:10.576Z,35.13
2022-08-04T19:57:43.960Z,35.50
2022-08-04T20:00:16.184Z,35.29
2022-08-04T20:02:43.716Z,35.87
2022-08-04T20:05:11.409Z,35.65
2022-08-04T20:07:38.970Z,36.22
2022-08-04T20:10:12.960Z,37.18
2022-08-04T20:12:42.076Z,37.53
2022-08-04T20:15:11.022Z,37.43
2022-08-04T20:18:07.618Z,34.50
2022-08-04T20:20:31.162Z,33.18
2022-08-04T20:22:59.294Z,33.52
2022-08-04T20:25:36.781Z,32.52
2022-08-04T20:28:05.701Z,31.58
2022-08-04T20:30:33.998Z,31.65
2022-08-04T20:33:01.753Z,32.14
2022-08-04T20:36:00.740Z,34.83
2022-08-04T20:38:33.692Z,32.50
2022-08-04T20:41:03.576Z,32.95
2022-08-04T20:43:31.592Z,32.36
2022-08-04T20:45:59.800Z,32.59
2022-08-04T20:48:28.828Z,33.25
2022-08-04T20:50:56.443Z,34.09
2022-08-04T20:53:32.836Z,33.62
2022-08-04T20:56:19.115Z,33.29
2022-08-04T20:58:58.727Z,33.48
2022-08-04T21:01:27.104Z,33.17
2022-08-04T21:04:27.789Z,33.78
2022-08-04T21:06:57.251Z,34.13
2022-08-04T21:09:26.595Z,34.38
2022-08-04T21:12:08.757Z,34.92
2022-08-04T21:14:36.363Z,34.71
2022-08-04T21:17:07.321Z,34.78
2022-08-04T21:19:36.652Z,34.81
2022-08-04T21:22:10.205Z,35.55
2022-08-04T21:24:38.579Z,35.16
2022-08-04T21:27:09.775Z,35.36
2022-08-04T21:29:37.595Z,35.25
2022-08-04T21:32:07.716Z,35.41
2022-08-04T21:34:39.054Z,35.70
2022-08-04T21:37:09.054Z,35.93
2022-08-04T21:39:43.922Z,36.60
2022-08-04T21:42:28.715Z,36.66
2022-08-04T21:44:57.670Z,37.01
2022-08-04T21:47:25.423Z,36.77
2022-08-04T21:49:56.306Z,36.96
2022-08-04T21:52:25.051Z,37.06
2022-08-04T21:54:54.283Z,37.71
2022-08-04T21:57:24.863Z,37.54
2022-08-04T21:59:54.237Z,37.60
2022-08-04T22:02:21.876Z,38.44
2022-08-04T22:04:51.191Z,38.29
2022-08-04T22:07:18.783Z,38.05
2022-08-04T22:10:02.211Z,38.18
2022-08-04T22:12:30.999Z,37.95
2022-08-04T22:16:02.645Z,38.23
2022-08-04T22:17:52.151Z,38.72
2022-08-04T22:20:27.778Z,38.63
2022-08-04T22:23:03.417Z,39.13
2022-08-04T22:25:37.763Z,39.31
2022-08-04T22:28:07.988Z,39.24
2022-08-04T22:30:38.448Z,39.76
2022-08-04T22:33:15.941Z,39.31
2022-08-04T22:35:49.745Z,39.85
2022-08-04T22:38:25.338Z,39.98
2022-08-04T22:41:06.342Z,40.59
2022-08-04T22:43:34.923Z,40.08
2022-08-04T22:46:06.710Z,40.44
2022-08-04T22:48:35.427Z,39.83
2022-08-04T22:51:03.715Z,39.76
2022-08-04T22:53:34.174Z,40.72
2022-08-04T22:56:11.279Z,42.24
2022-08-04T22:58:51.756Z,42.80
2022-08-04T23:02:00.032Z,41.86
2022-08-04T23:04:49.952Z,42.30
2022-08-04T23:07:49.451Z,43.42
2022-08-04T23:10:39.896Z,43.45
2022-08-04T23:13:17.829Z,43.80
2022-08-04T23:15:48.623Z,44.37
2022-08-04T23:18:20.350Z,44.37
2022-08-04T23:21:12.378Z,44.94
2022-08-04T23:23:45.598Z,44.58
2022-08-04T23:26:29.518Z,45.09
2022-08-04T23:29:07.508Z,45.28
2022-08-04T23:31:59.659Z,45.47
2022-08-04T23:34:30.775Z,45.68
2022-08-04T23:37:10.158Z,45.80
2022-08-04T23:40:30.476Z,45.79
2022-08-04T23:44:39.667Z,46.55
2022-08-04T23:46:06.560Z,46.89
2022-08-04T23:48:58.380Z,47.02
2022-08-04T23:51:39.154Z,46.64
2022-08-04T23:54:13.954Z,47.21
2022-08-04T23:56:44.922Z,47.53
2022-08-04T23:59:52.405Z,47.64
